West Fargo, North Dakota
Current Conditions -  °F | °C
As of 9:53 PM on Wednesday 17 Dec 2014 (Local Time) from KFAR Reporting Station
Clear Clear  
Wind Chill:   Ceiling: Unl
Heat Index:   Visibility: 10mi
Dew Point:   Wind: 0mph
Humidity: 80%   Direction: NA
Pressure: 30.32"   Gusts: NA
Location:  46.87°N, 96.88°W
Report Text: KFAR 180353Z 00000KT 10SM CLR M13/M16 A3032 RMK AO2 SLP290 T11281156
Loading
Personal Weather Stations






























Interactive Weather Map New forecast layout! Learn more

10-Day Weather Forecast

Advertisements
Track Severe Weather on mobile